createdAt,value
2023-10-26T00:01:38.305Z,3.90
2023-10-26T00:06:39.736Z,4.40
2023-10-26T00:11:41.157Z,4.28
2023-10-26T00:16:42.692Z,4.47
2023-10-26T00:21:44.127Z,4.05
2023-10-26T00:26:45.808Z,4.53
2023-10-26T00:31:47.297Z,5.07
2023-10-26T00:36:48.990Z,6.45
2023-10-26T00:41:54.704Z,7.65
2023-10-26T00:46:56.324Z,8.63
2023-10-26T00:52:02.086Z,8.30
2023-10-26T00:57:04.888Z,10.98
2023-10-26T01:02:06.698Z,8.38
2023-10-26T01:07:08.158Z,9.30
2023-10-26T01:12:10.403Z,8.82
2023-10-26T01:17:12.573Z,7.47
2023-10-26T01:22:14.156Z,6.53
2023-10-26T01:27:15.702Z,4.80
2023-10-26T01:32:17.127Z,5.95
2023-10-26T01:37:18.676Z,6.07
2023-10-26T01:42:20.139Z,7.13
2023-10-26T01:47:22.042Z,8.52
2023-10-26T01:52:23.623Z,7.25
2023-10-26T01:57:25.618Z,8.35
2023-10-26T02:02:27.072Z,7.65
2023-10-26T02:07:28.640Z,7.00
2023-10-26T02:12:30.107Z,6.55
2023-10-26T02:17:31.963Z,7.63
2023-10-26T02:22:33.597Z,8.55
2023-10-26T02:27:35.643Z,8.77
2023-10-26T02:32:37.274Z,8.68
2023-10-26T02:37:38.807Z,8.50
2023-10-26T02:42:40.545Z,9.25
2023-10-26T02:47:42.136Z,9.35
2023-10-26T02:52:43.649Z,9.63
2023-10-26T02:57:45.273Z,10.70
2023-10-26T03:02:46.819Z,8.77
2023-10-26T03:07:48.310Z,9.68
2023-10-26T03:12:50.590Z,11.27
2023-10-26T03:17:52.289Z,11.48
2023-10-26T03:22:54.292Z,11.18
2023-10-26T03:27:55.812Z,10.02
2023-10-26T03:32:57.360Z,9.05
2023-10-26T03:37:58.905Z,10.23
2023-10-26T03:43:00.355Z,9.43
2023-10-26T03:48:01.977Z,11.13
2023-10-26T03:53:03.576Z,10.30
2023-10-26T03:58:05.082Z,9.02
2023-10-26T04:03:06.767Z,9.02
2023-10-26T04:08:08.438Z,9.43
2023-10-26T04:13:10.266Z,9.73
2023-10-26T04:18:12.172Z,10.38
2023-10-26T04:23:13.843Z,10.23
2023-10-26T04:28:16.871Z,10.15
2023-10-26T04:33:20.165Z,9.65
2023-10-26T04:38:21.782Z,11.02
2023-10-26T04:43:23.233Z,9.88
2023-10-26T04:48:24.852Z,10.68
2023-10-26T04:53:26.252Z,9.95
2023-10-26T04:58:27.669Z,9.60
2023-10-26T05:03:29.112Z,10.88
2023-10-26T05:08:30.748Z,10.55
2023-10-26T05:13:32.197Z,9.73
2023-10-26T05:18:33.738Z,9.32
2023-10-26T05:23:35.434Z,9.60
2023-10-26T05:28:37.101Z,10.63
2023-10-26T05:33:38.741Z,10.35
2023-10-26T05:38:40.216Z,9.95
2023-10-26T05:43:41.695Z,8.52
2023-10-26T05:48:43.272Z,9.70
2023-10-26T05:53:44.920Z,9.15
2023-10-26T05:58:46.310Z,10.48
2023-10-26T06:03:47.764Z,8.93
2023-10-26T06:08:49.198Z,8.43
2023-10-26T06:13:50.715Z,9.25
2023-10-26T06:18:52.282Z,10.00
2023-10-26T06:23:53.843Z,9.73
2023-10-26T06:28:55.240Z,9.90
2023-10-26T06:33:56.721Z,9.00
2023-10-26T06:38:58.308Z,10.40
2023-10-26T06:43:59.967Z,9.40
2023-10-26T06:49:06.598Z,10.75
2023-10-26T06:54:16.797Z,9.90
2023-10-26T06:59:18.458Z,11.15
2023-10-26T07:04:20.217Z,9.35
2023-10-26T07:09:22.263Z,11.10
2023-10-26T07:14:23.835Z,10.20
2023-10-26T07:19:25.263Z,9.45
2023-10-26T07:24:26.924Z,10.30
2023-10-26T07:29:28.353Z,9.27
2023-10-26T07:34:29.827Z,10.85
2023-10-26T07:39:45.002Z,10.48
2023-10-26T07:44:52.518Z,10.65
2023-10-26T07:49:53.967Z,10.95
2023-10-26T07:54:55.441Z,10.98
2023-10-26T07:59:56.981Z,11.57
2023-10-26T08:04:58.412Z,10.95
2023-10-26T08:09:59.905Z,12.35
2023-10-26T08:16:10.577Z,11.70
2023-10-26T08:20:23.329Z,12.02
2023-10-26T08:25:26.029Z,11.82
2023-10-26T08:30:27.889Z,11.38
2023-10-26T08:35:29.334Z,12.65
2023-10-26T08:40:31.355Z,12.20
2023-10-26T08:45:34.881Z,12.65
2023-10-26T08:50:36.563Z,12.43
2023-10-26T08:55:40.424Z,13.63
2023-10-26T09:00:41.993Z,14.25
2023-10-26T09:05:54.421Z,14.45
2023-10-26T09:10:55.988Z,14.52
2023-10-26T09:15:59.898Z,12.48
2023-10-26T09:21:09.206Z,13.63
2023-10-26T09:26:18.210Z,14.52
2023-10-26T09:31:24.050Z,14.07
2023-10-26T09:36:25.570Z,14.45
2023-10-26T09:41:27.192Z,14.68
2023-10-26T09:46:29.515Z,12.98
2023-10-26T09:51:31.157Z,14.27
2023-10-26T09:56:34.285Z,14.15
2023-10-26T10:01:37.479Z,14.00
2023-10-26T10:06:49.077Z,13.82
2023-10-26T10:12:06.046Z,15.73
2023-10-26T10:17:07.603Z,13.48
2023-10-26T10:22:37.064Z,12.68
2023-10-26T10:27:39.382Z,13.03
2023-10-26T10:32:44.327Z,13.15
2023-10-26T10:38:13.695Z,11.27
2023-10-26T10:43:15.326Z,11.57
2023-10-26T10:48:16.775Z,8.20
2023-10-26T10:53:18.233Z,9.48
2023-10-26T10:58:19.733Z,12.98
2023-10-26T11:03:22.857Z,11.52
2023-10-26T11:08:24.734Z,12.00
2023-10-26T11:13:26.189Z,11.40
2023-10-26T11:18:27.942Z,9.73
2023-10-26T11:23:29.461Z,10.93
2023-10-26T11:28:34.402Z,10.25
2023-10-26T11:33:40.229Z,9.73
2023-10-26T11:38:52.097Z,10.20
2023-10-26T11:43:53.567Z,9.75
2023-10-26T11:48:55.091Z,9.98
2023-10-26T11:53:57.742Z,9.65
2023-10-26T11:58:59.167Z,9.60
2023-10-26T12:04:00.705Z,10.27
2023-10-26T12:09:02.267Z,9.98
2023-10-26T12:14:03.719Z,9.07
2023-10-26T12:19:05.213Z,8.75
2023-10-26T12:24:06.964Z,8.60
2023-10-26T12:29:08.411Z,7.13
2023-10-26T12:34:10.136Z,8.45
2023-10-26T12:39:11.720Z,7.93
2023-10-26T12:44:13.221Z,5.97
2023-10-26T12:49:14.694Z,7.90
2023-10-26T12:54:16.731Z,6.07
2023-10-26T12:59:18.183Z,6.72
2023-10-26T13:04:19.731Z,6.00
2023-10-26T13:09:21.626Z,5.90
2023-10-26T13:14:23.186Z,4.78
2023-10-26T13:19:24.728Z,5.32
2023-10-26T13:24:26.217Z,4.90
2023-10-26T13:29:27.635Z,5.47
2023-10-26T13:34:29.169Z,5.47
2023-10-26T13:39:30.694Z,6.10
2023-10-26T13:44:32.259Z,6.13
2023-10-26T13:49:34.023Z,5.47
2023-10-26T13:54:36.281Z,6.00
2023-10-26T13:59:37.747Z,5.93
2023-10-26T14:04:40.299Z,7.95
2023-10-26T14:09:42.197Z,6.30
2023-10-26T14:14:43.803Z,6.53
2023-10-26T14:19:45.390Z,5.18
2023-10-26T14:24:47.216Z,4.88
2023-10-26T14:29:48.673Z,4.93
2023-10-26T14:34:50.327Z,5.40
2023-10-26T14:39:52.403Z,5.82
2023-10-26T14:44:53.922Z,5.88
2023-10-26T14:49:55.550Z,5.53
2023-10-26T14:54:57.179Z,4.80
2023-10-26T14:59:58.684Z,3.40
2023-10-26T15:05:00.194Z,3.13
2023-10-26T15:10:24.375Z,3.00
2023-10-26T15:15:24.491Z,2.42
2023-10-26T15:20:25.964Z,1.80
2023-10-26T15:25:27.533Z,2.30
2023-10-26T15:30:29.125Z,3.33
2023-10-26T15:35:31.314Z,2.50
2023-10-26T15:40:32.775Z,2.35
2023-10-26T15:45:34.338Z,2.67
2023-10-26T15:50:35.919Z,1.83
2023-10-26T15:55:37.479Z,2.00
2023-10-26T16:00:38.983Z,2.15
2023-10-26T16:05:40.449Z,2.60
2023-10-26T16:10:41.890Z,2.13
2023-10-26T16:15:43.369Z,2.00
2023-10-26T16:20:44.831Z,3.05
2023-10-26T16:25:46.969Z,2.58
2023-10-26T16:30:48.577Z,3.20
2023-10-26T16:35:50.272Z,2.80
2023-10-26T16:40:52.413Z,2.80
2023-10-26T16:45:56.479Z,3.33
2023-10-26T16:50:58.050Z,3.78
2023-10-26T16:56:04.993Z,3.90
2023-10-26T17:01:08.466Z,3.10
2023-10-26T17:06:10.276Z,3.25
2023-10-26T17:11:11.933Z,3.50
2023-10-26T17:16:13.452Z,3.85
2023-10-26T17:21:14.963Z,4.28
2023-10-26T17:26:16.383Z,3.92
2023-10-26T17:31:18.327Z,4.53
2023-10-26T17:36:19.795Z,4.38
2023-10-26T17:41:22.082Z,4.15
2023-10-26T17:46:23.841Z,4.40
2023-10-26T17:51:25.630Z,5.15
2023-10-26T17:56:27.159Z,5.88
2023-10-26T18:01:28.767Z,6.13
2023-10-26T18:06:30.335Z,5.28
2023-10-26T18:11:32.390Z,5.97
2023-10-26T18:16:33.961Z,4.90
2023-10-26T18:21:35.506Z,5.28
2023-10-26T18:26:36.978Z,5.00
2023-10-26T18:31:38.521Z,4.45
2023-10-26T18:36:40.449Z,4.68
2023-10-26T18:41:42.221Z,4.20
2023-10-26T18:46:43.664Z,4.30
2023-10-26T18:51:45.134Z,4.72
2023-10-26T18:56:46.584Z,4.82
2023-10-26T19:01:48.054Z,4.57
2023-10-26T19:06:49.579Z,4.35
2023-10-26T19:11:51.224Z,4.65
2023-10-26T19:16:52.752Z,4.30
2023-10-26T19:21:54.370Z,4.63
2023-10-26T19:26:55.970Z,4.45
2023-10-26T19:31:57.473Z,4.95
2023-10-26T19:36:58.998Z,4.47
2023-10-26T19:42:00.504Z,4.93
2023-10-26T19:47:02.121Z,4.32
2023-10-26T19:52:04.367Z,4.57
2023-10-26T19:57:05.797Z,4.60
2023-10-26T20:02:08.054Z,4.40
2023-10-26T20:07:09.566Z,4.50
2023-10-26T20:12:10.964Z,5.20
2023-10-26T20:17:12.610Z,5.38
2023-10-26T20:22:14.154Z,5.20
2023-10-26T20:27:16.353Z,5.45
2023-10-26T20:32:18.307Z,4.32
2023-10-26T20:37:19.768Z,5.25
2023-10-26T20:42:22.477Z,5.55
2023-10-26T20:47:23.948Z,5.68
2023-10-26T20:52:25.399Z,5.95
2023-10-26T20:57:26.805Z,5.95
2023-10-26T21:02:28.255Z,5.90
2023-10-26T21:07:29.696Z,6.10
2023-10-26T21:12:31.599Z,5.72
2023-10-26T21:17:33.502Z,5.20
2023-10-26T21:22:35.799Z,6.03
2023-10-26T21:27:37.515Z,5.63
2023-10-26T21:32:38.923Z,5.78
2023-10-26T21:37:40.415Z,6.10
2023-10-26T21:42:41.825Z,6.72
2023-10-26T21:47:43.294Z,5.90
2023-10-26T21:52:44.931Z,5.32
2023-10-26T21:57:46.416Z,5.63
2023-10-26T22:02:48.030Z,5.85
2023-10-26T22:07:50.478Z,6.03
2023-10-26T22:12:51.912Z,5.47
2023-10-26T22:17:53.453Z,5.38
2023-10-26T22:22:54.887Z,4.93
2023-10-26T22:27:56.420Z,5.38
2023-10-26T22:32:57.858Z,4.97
2023-10-26T22:37:59.332Z,4.55
2023-10-26T22:43:00.820Z,4.80
2023-10-26T22:48:02.918Z,5.18
2023-10-26T22:53:04.571Z,4.78
2023-10-26T22:58:06.009Z,5.22
2023-10-26T23:03:07.566Z,4.22
2023-10-26T23:08:09.283Z,4.35
2023-10-26T23:13:10.794Z,5.03
2023-10-26T23:18:12.324Z,5.13
2023-10-26T23:23:13.897Z,5.75
2023-10-26T23:28:15.381Z,5.38
2023-10-26T23:33:16.820Z,4.80
2023-10-26T23:38:18.351Z,4.22
2023-10-26T23:43:19.833Z,5.18
2023-10-26T23:48:22.270Z,4.25
2023-10-26T23:53:23.778Z,4.50
2023-10-26T23:58:25.343Z,3.80
